Time;durP1;ratioP1;P1;durP2;ratioP2;P2;SDS_P1;SDS_P2;PMS_P1;PMS_P2;Temp;Humidity;BMP_temperature;BMP_pressure;BME280_temperature;BME280_humidity;BME280_pressure;Samples;Min_cycle;Max_cycle;Signal;HPM_P1;HPM_P2
2021/07/05 00:02:25;;;;;;;5.35;4.45;;;21.30;77.90;;;;;;5081193;28;20041;-75
2021/07/05 00:04:51;;;;;;;4.55;3.70;;;21.30;78.00;;;;;;5075158;28;20472;-75
2021/07/05 00:07:17;;;;;;;4.82;4.38;;;21.30;78.00;;;;;;5075058;28;20055;-75
2021/07/05 00:09:43;;;;;;;5.88;4.40;;;21.30;78.00;;;;;;5075135;28;20048;-75
2021/07/05 00:12:10;;;;;;;4.55;4.15;;;21.30;78.00;;;;;;5074639;28;20068;-76
2021/07/05 00:14:36;;;;;;;4.97;4.13;;;21.30;77.90;;;;;;5074888;28;20344;-76
2021/07/05 00:17:03;;;;;;;6.88;4.20;;;21.30;77.90;;;;;;5075185;28;20055;-75
2021/07/05 00:19:29;;;;;;;4.45;3.90;;;21.30;78.00;;;;;;5074685;28;20052;-75
2021/07/05 00:21:55;;;;;;;4.30;3.90;;;21.30;78.00;;;;;;5074773;28;20053;-75
2021/07/05 00:24:21;;;;;;;3.78;3.40;;;21.30;78.00;;;;;;5075932;28;20051;-75
2021/07/05 00:26:47;;;;;;;4.30;3.90;;;21.30;78.60;;;;;;5075289;28;20064;-76
2021/07/05 00:29:15;;;;;;;4.95;3.60;;;21.30;78.00;;;;;;5074727;28;20360;-75
2021/07/05 00:31:41;;;;;;;4.55;3.80;;;21.20;77.90;;;;;;5074958;28;20047;-76
2021/07/05 00:34:07;;;;;;;4.65;3.92;;;21.30;77.90;;;;;;5074970;28;20412;-75
2021/07/05 00:36:33;;;;;;;4.72;4.20;;;21.20;77.80;;;;;;5074601;28;20045;-75
2021/07/05 00:38:59;;;;;;;4.32;3.92;;;21.20;77.90;;;;;;5078496;28;20451;-75
2021/07/05 00:41:29;;;;;;;4.47;4.03;;;21.20;77.90;;;;;;5079212;28;20051;-76
2021/07/05 00:43:56;;;;;;;4.13;3.70;;;21.20;77.80;;;;;;5078951;28;20062;-75
2021/07/05 00:46:22;;;;;;;4.10;3.70;;;21.20;77.80;;;;;;5078912;28;20052;-75
2021/07/05 00:48:48;;;;;;;4.90;4.38;;;21.20;77.70;;;;;;5079032;28;20538;-75
2021/07/05 00:51:16;;;;;;;4.93;4.22;;;21.20;77.70;;;;;;5079005;28;20123;-75
2021/07/05 00:53:43;;;;;;;4.97;4.00;;;21.20;77.80;;;;;;5078454;28;20052;-75
2021/07/05 00:56:09;;;;;;;4.28;3.70;;;21.20;77.70;;;;;;5094593;28;20157;-74
2021/07/05 00:58:35;;;;;;;4.40;3.80;;;21.20;77.80;;;;;;5099143;28;20043;-76
2021/07/05 01:01:01;;;;;;;5.65;4.40;;;21.20;77.80;;;;;;5098941;28;20044;-76
2021/07/05 01:03:27;;;;;;;4.80;4.18;;;21.20;77.80;;;;;;5098520;28;20063;-76
2021/07/05 01:05:53;;;;;;;6.40;4.47;;;21.20;77.80;;;;;;5115082;28;20094;-75
2021/07/05 01:08:18;;;;;;;4.47;4.07;;;21.20;77.80;;;;;;5099220;28;20439;-75
2021/07/05 01:10:44;;;;;;;6.57;4.60;;;21.20;77.80;;;;;;5098713;28;20040;-75
2021/07/05 01:13:10;;;;;;;4.30;3.67;;;21.20;77.80;;;;;;5098712;28;20060;-76
2021/07/05 01:15:36;;;;;;;4.85;3.97;;;21.20;77.90;;;;;;5098336;28;20105;-75
2021/07/05 01:18:05;;;;;;;5.43;4.43;;;21.10;77.80;;;;;;5098342;28;20046;-76
2021/07/05 01:20:33;;;;;;;6.35;5.07;;;21.20;77.90;;;;;;5098230;28;20046;-75
2021/07/05 01:22:59;;;;;;;6.47;4.75;;;21.10;77.70;;;;;;5098210;28;20109;-75
2021/07/05 01:25:28;;;;;;;5.03;4.28;;;21.10;77.60;;;;;;5088169;28;20048;-75
2021/07/05 01:27:55;;;;;;;4.43;3.80;;;21.10;77.60;;;;;;5077743;28;20044;-76
2021/07/05 01:30:23;;;;;;;4.65;4.05;;;21.10;77.60;;;;;;5078293;28;20113;-75
2021/07/05 01:32:52;;;;;;;3.90;3.50;;;21.10;77.60;;;;;;5078354;28;20527;-75
2021/07/05 01:35:17;;;;;;;3.88;3.40;;;21.10;77.50;;;;;;5077759;28;20099;-74
2021/07/05 01:37:44;;;;;;;4.30;3.60;;;21.10;77.50;;;;;;5078339;28;20456;-75
2021/07/05 01:40:16;;;;;;;3.85;3.42;;;21.10;77.40;;;;;;5077732;28;20075;-75
2021/07/05 01:42:43;;;;;;;4.18;3.50;;;21.10;77.40;;;;;;5077922;28;20399;-75
2021/07/05 01:45:11;;;;;;;5.40;3.80;;;21.10;77.40;;;;;;5078282;28;20143;-75
2021/07/05 01:47:36;;;;;;;3.60;3.25;;;21.10;77.30;;;;;;5077724;28;20041;-75
2021/07/05 01:50:03;;;;;;;3.95;3.20;;;21.10;77.40;;;;;;5076308;28;20040;-75
2021/07/05 01:52:29;;;;;;;3.72;3.05;;;21.10;77.40;;;;;;5081005;28;20350;-76
2021/07/05 01:54:55;;;;;;;4.18;3.33;;;21.00;77.30;;;;;;5081727;28;20044;-76
2021/07/05 01:57:27;;;;;;;3.10;2.80;;;21.10;77.30;;;;;;5077414;28;20448;-76
2021/07/05 01:59:58;;;;;;;3.08;2.78;;;21.00;77.30;;;;;;5077908;28;20045;-76
2021/07/05 02:02:25;;;;;;;3.83;3.38;;;21.00;77.30;;;;;;5077703;28;20044;-75
2021/07/05 02:04:51;;;;;;;3.65;3.08;;;21.00;77.30;;;;;;5077493;28;20382;-76
2021/07/05 02:07:18;;;;;;;3.88;3.03;;;21.00;77.30;;;;;;5077191;28;20509;-75
2021/07/05 02:09:45;;;;;;;3.65;3.17;;;21.00;77.30;;;;;;5077956;28;20113;-75
2021/07/05 02:12:12;;;;;;;3.20;2.80;;;21.00;77.30;;;;;;5077047;28;20076;-76
2021/07/05 02:14:39;;;;;;;3.53;2.72;;;21.00;77.30;;;;;;5076729;28;20040;-75
2021/07/05 02:17:07;;;;;;;3.45;3.05;;;21.00;77.30;;;;;;5077038;28;20056;-76
2021/07/05 02:19:33;;;;;;;3.25;2.45;;;21.00;77.30;;;;;;5077539;28;20044;-75
2021/07/05 02:21:59;;;;;;;3.50;2.85;;;21.00;77.30;;;;;;5077231;28;20052;-78
2021/07/05 02:24:25;;;;;;;4.65;3.13;;;21.00;77.30;;;;;;5077111;28;20512;-75
2021/07/05 02:26:51;;;;;;;3.47;3.17;;;20.90;77.10;;;;;;5092537;28;20041;-76
2021/07/05 02:29:17;;;;;;;2.97;2.67;;;21.00;77.10;;;;;;5076727;28;20343;-76
2021/07/05 02:31:43;;;;;;;3.13;2.75;;;21.00;77.20;;;;;;5076886;28;20110;-76
2021/07/05 02:34:09;;;;;;;3.78;2.92;;;21.00;77.10;;;;;;5077363;28;20045;-75
2021/07/05 02:36:35;;;;;;;3.08;2.75;;;21.00;77.10;;;;;;5076871;28;20048;-75
2021/07/05 02:39:01;;;;;;;3.42;2.95;;;20.90;77.00;;;;;;5076829;28;20429;-75
2021/07/05 02:41:26;;;;;;;3.55;2.78;;;20.90;77.00;;;;;;5076634;28;20094;-76
2021/07/05 02:43:52;;;;;;;3.80;2.85;;;20.90;77.00;;;;;;5076588;28;20044;-76
2021/07/05 02:46:18;;;;;;;2.70;2.50;;;21.00;77.10;;;;;;5092536;28;20427;-75
2021/07/05 02:48:44;;;;;;;2.75;2.53;;;20.90;77.00;;;;;;5076808;28;20094;-75
2021/07/05 02:51:11;;;;;;;2.80;2.50;;;20.90;77.00;;;;;;5076656;28;20075;-75
2021/07/05 02:53:37;;;;;;;3.17;2.40;;;20.90;77.00;;;;;;5088850;28;20052;-75
2021/07/05 02:56:03;;;;;;;3.13;2.72;;;20.90;77.00;;;;;;5096662;28;20031;-75
2021/07/05 02:58:30;;;;;;;2.80;2.53;;;20.90;76.90;;;;;;5096622;28;20039;-76
2021/07/05 03:00:59;;;;;;;3.90;3.15;;;20.90;76.90;;;;;;5096445;28;20048;-75
2021/07/05 03:03:26;;;;;;;4.35;2.70;;;20.90;76.90;;;;;;5096733;28;20040;-75
2021/07/05 03:05:52;;;;;;;2.92;2.60;;;20.90;76.80;;;;;;5096266;28;20055;-75
2021/07/05 03:08:19;;;;;;;3.42;3.05;;;20.90;76.80;;;;;;5096556;28;20052;-75
2021/07/05 03:10:45;;;;;;;3.55;2.97;;;20.90;76.80;;;;;;5096100;28;20048;-75
2021/07/05 03:13:14;;;;;;;4.35;2.67;;;20.90;76.80;;;;;;5095978;28;20044;-75
2021/07/05 03:15:40;;;;;;;3.22;2.78;;;20.90;76.80;;;;;;5096161;28;20073;-75
2021/07/05 03:18:07;;;;;;;2.65;2.42;;;20.80;76.70;;;;;;5096046;28;20127;-75
2021/07/05 03:20:43;;;;;;;3.42;2.97;;;20.80;76.70;;;;;;5096400;28;20524;-77
2021/07/05 03:23:12;;;;;;;2.88;2.60;;;20.80;76.70;;;;;;5083911;28;20375;-75
2021/07/05 03:25:38;;;;;;;3.05;2.75;;;20.80;76.70;;;;;;5076157;28;20048;-76
2021/07/05 03:28:07;;;;;;;3.63;2.83;;;20.80;76.70;;;;;;5076778;28;20127;-75
2021/07/05 03:30:34;;;;;;;3.88;2.72;;;20.80;76.70;;;;;;5075535;28;20444;-74
2021/07/05 03:33:01;;;;;;;2.85;2.25;;;20.80;76.70;;;;;;5076335;28;20413;-75
2021/07/05 03:35:28;;;;;;;2.95;2.53;;;20.80;76.70;;;;;;5075770;28;20500;-75
2021/07/05 03:37:54;;;;;;;3.58;2.80;;;20.80;76.70;;;;;;5075449;28;20045;-75
2021/07/05 03:40:24;;;;;;;4.80;3.55;;;20.80;76.70;;;;;;5075641;28;20040;-75
2021/07/05 03:42:50;;;;;;;3.03;2.65;;;20.80;76.70;;;;;;5075548;28;20501;-75
2021/07/05 03:45:19;;;;;;;3.38;3.00;;;20.80;76.70;;;;;;5076161;28;20048;-75
2021/07/05 03:47:46;;;;;;;4.13;3.28;;;20.80;76.70;;;;;;5074292;28;20044;-75
2021/07/05 03:50:13;;;;;;;4.88;3.00;;;20.70;77.30;;;;;;5075124;28;20036;-75
2021/07/05 03:52:39;;;;;;;3.45;2.90;;;20.70;76.70;;;;;;5082358;28;20036;-75
2021/07/05 03:55:07;;;;;;;4.10;3.05;;;20.70;76.70;;;;;;5095411;28;20093;-75
2021/07/05 03:57:33;;;;;;;5.13;3.70;;;20.70;76.70;;;;;;5095650;28;20511;-75
2021/07/05 03:59:59;;;;;;;3.78;3.40;;;20.70;76.70;;;;;;5095689;28;20432;-75
2021/07/05 04:02:26;;;;;;;3.50;3.13;;;20.70;76.70;;;;;;5093690;28;20383;-75
2021/07/05 04:04:54;;;;;;;4.18;3.15;;;20.70;76.70;;;;;;5095875;28;20051;-75
2021/07/05 04:07:20;;;;;;;5.00;4.18;;;20.70;76.70;;;;;;5095286;28;20050;-75
2021/07/05 04:09:46;;;;;;;4.15;3.53;;;20.70;76.70;;;;;;5095460;28;20044;-75
2021/07/05 04:12:13;;;;;;;3.92;3.22;;;20.70;76.70;;;;;;5094983;28;20063;-74
2021/07/05 04:14:40;;;;;;;4.50;4.10;;;20.70;76.80;;;;;;5096171;28;20047;-75
2021/07/05 04:17:07;;;;;;;5.32;4.20;;;20.70;76.70;;;;;;5095437;28;20105;-75
2021/07/05 04:19:33;;;;;;;5.80;4.03;;;20.70;76.70;;;;;;5095763;28;20458;-76
2021/07/05 04:21:59;;;;;;;5.38;3.92;;;20.70;76.70;;;;;;5095285;28;20055;-75
2021/07/05 04:24:25;;;;;;;4.80;3.92;;;20.70;76.70;;;;;;5095819;28;20054;-75
2021/07/05 04:26:51;;;;;;;5.53;3.90;;;20.70;76.70;;;;;;5086322;28;20037;-75
2021/07/05 04:29:17;;;;;;;6.63;4.25;;;20.70;76.70;;;;;;5075562;28;20048;-76
2021/07/05 04:31:43;;;;;;;5.40;4.22;;;20.70;76.70;;;;;;5074894;28;20366;-75
2021/07/05 04:34:09;;;;;;;5.05;4.20;;;20.70;76.70;;;;;;5074727;28;20123;-75
2021/07/05 04:36:36;;;;;;;4.43;3.85;;;20.70;76.70;;;;;;5075129;28;20136;-75
2021/07/05 04:39:04;;;;;;;5.93;4.15;;;20.70;76.70;;;;;;5086225;28;20044;-75
2021/07/05 04:41:30;;;;;;;4.88;4.38;;;20.70;76.70;;;;;;5095104;28;20068;-75
2021/07/05 04:43:56;;;;;;;4.90;4.38;;;20.70;76.80;;;;;;5095086;28;20458;-74
2021/07/05 04:46:23;;;;;;;4.93;3.85;;;20.70;76.80;;;;;;5088048;28;20052;-75
2021/07/05 04:48:50;;;;;;;6.30;4.47;;;20.70;76.80;;;;;;5092118;28;20040;-76
2021/07/05 04:51:18;;;;;;;6.75;5.03;;;20.70;76.90;;;;;;5086305;28;20063;-75
2021/07/05 04:53:44;;;;;;;7.45;5.55;;;20.70;76.70;;;;;;5074731;28;20044;-77
2021/07/05 04:56:10;;;;;;;8.45;7.05;;;20.70;76.70;;;;;;5081030;28;20443;-74
2021/07/05 04:58:37;;;;;;;9.68;7.03;;;20.60;76.70;;;;;;5095153;28;20040;-76
2021/07/05 05:01:04;;;;;;;11.70;7.45;;;20.60;76.80;;;;;;5095121;28;20040;-76
2021/07/05 05:03:30;;;;;;;10.18;7.63;;;20.60;76.90;;;;;;5091609;28;20036;-75
2021/07/05 05:05:56;;;;;;;11.27;7.88;;;20.60;77.00;;;;;;5092665;28;20102;-77
2021/07/05 05:08:21;;;;;;;12.82;7.90;;;20.50;77.10;;;;;;5090278;28;20056;-75
2021/07/05 05:10:47;;;;;;;12.75;8.00;;;20.50;77.30;;;;;;5074589;28;20440;-71
2021/07/05 05:13:13;;;;;;;11.30;8.00;;;20.50;77.40;;;;;;5074238;28;20075;-80
2021/07/05 05:15:39;;;;;;;10.32;7.72;;;20.50;77.50;;;;;;5089755;28;20071;-74
2021/07/05 05:18:05;;;;;;;12.45;7.35;;;20.50;77.60;;;;;;5089191;28;20044;-72
2021/07/05 05:20:31;;;;;;;10.00;7.07;;;20.50;77.70;;;;;;5090388;28;20036;-76
2021/07/05 05:22:57;;;;;;;9.50;6.90;;;20.50;77.50;;;;;;5083448;28;20044;-76
2021/07/05 05:25:24;;;;;;;10.02;7.40;;;20.50;77.40;;;;;;5092267;28;20105;-76
2021/07/05 05:27:50;;;;;;;8.75;6.13;;;20.50;77.30;;;;;;5078043;28;20045;-76
2021/07/05 05:30:19;;;;;;;9.93;5.50;;;20.50;76.90;;;;;;5080323;28;20035;-75
2021/07/05 05:32:46;;;;;;;7.65;5.53;;;20.50;76.60;;;;;;5113785;28;20126;-75
2021/07/05 05:35:15;;;;;;;7.45;4.95;;;20.50;76.50;;;;;;5085825;28;20451;-73
2021/07/05 05:37:41;;;;;;;8.50;4.47;;;20.50;76.40;;;;;;5077539;28;20044;-72
2021/07/05 05:40:07;;;;;;;10.90;5.03;;;20.50;76.30;;;;;;5077810;28;20048;-73
2021/07/05 05:42:33;;;;;;;7.97;4.30;;;20.50;76.20;;;;;;5091450;28;20427;-73
2021/07/05 05:44:59;;;;;;;8.15;4.00;;;20.50;76.10;;;;;;5097453;28;20079;-73
2021/07/05 05:47:24;;;;;;;8.40;3.85;;;20.50;75.70;;;;;;5097711;28;20044;-72
2021/07/05 05:49:50;;;;;;;7.43;3.83;;;20.40;75.70;;;;;;5082565;28;20055;-72
2021/07/05 05:52:16;;;;;;;6.57;3.47;;;20.40;75.80;;;;;;5097684;28;20108;-72
2021/07/05 05:54:42;;;;;;;8.75;3.53;;;20.40;75.60;;;;;;5078573;28;20349;-72
2021/07/05 05:57:24;;;;;;;8.07;4.05;;;20.40;75.70;;;;;;5077324;28;20037;-72
2021/07/05 05:59:50;;;;;;;7.60;3.35;;;20.40;75.80;;;;;;5076945;28;20083;-74
2021/07/05 06:02:16;;;;;;;6.07;2.63;;;20.40;75.90;;;;;;5078170;28;20036;-74
2021/07/05 06:04:42;;;;;;;17.23;3.80;;;20.40;76.00;;;;;;5086996;28;20101;-74
2021/07/05 06:07:08;;;;;;;9.55;3.20;;;20.40;76.00;;;;;;5095348;28;20059;-79
2021/07/05 06:09:34;;;;;;;10.65;3.10;;;20.40;76.10;;;;;;5094179;28;20117;-75
2021/07/05 06:11:59;;;;;;;8.88;3.30;;;20.40;76.10;;;;;;5076863;28;20060;-74
2021/07/05 06:14:25;;;;;;;11.25;3.20;;;20.40;76.10;;;;;;5077968;28;20462;-75
2021/07/05 06:16:51;;;;;;;14.38;3.78;;;20.40;76.00;;;;;;5083862;28;20184;-71
2021/07/05 06:19:17;;;;;;;10.07;3.92;;;20.40;76.00;;;;;;5100682;28;20047;-72
2021/07/05 06:21:42;;;;;;;9.43;3.70;;;20.40;76.00;;;;;;5088126;28;20043;-73
2021/07/05 06:24:09;;;;;;;7.28;3.50;;;20.40;76.00;;;;;;5077181;28;20183;-74
2021/07/05 06:26:35;;;;;;;11.43;3.95;;;20.40;76.00;;;;;;5076944;28;20076;-73
2021/07/05 06:29:01;;;;;;;7.93;3.42;;;20.40;75.90;;;;;;5076958;28;20053;-73
2021/07/05 06:31:27;;;;;;;8.32;3.63;;;20.40;75.90;;;;;;5076919;28;20348;-73
2021/07/05 06:33:53;;;;;;;9.05;4.00;;;20.40;75.90;;;;;;5087031;28;20079;-72
2021/07/05 06:36:19;;;;;;;8.60;3.85;;;20.40;75.80;;;;;;5096530;28;20119;-74
2021/07/05 06:38:45;;;;;;;12.75;5.00;;;20.40;76.00;;;;;;5096903;28;20465;-74
2021/07/05 06:41:11;;;;;;;6.93;3.33;;;20.40;76.10;;;;;;5096490;28;20054;-73
2021/07/05 06:43:36;;;;;;;12.38;4.63;;;20.40;76.20;;;;;;5096566;28;20044;-73
2021/07/05 06:46:02;;;;;;;12.57;4.45;;;20.40;76.20;;;;;;5096632;28;20431;-74
2021/07/05 06:48:28;;;;;;;9.20;3.70;;;20.40;76.20;;;;;;5096609;28;20367;-74
2021/07/05 06:50:54;;;;;;;10.10;4.57;;;20.40;76.20;;;;;;5096768;28;20435;-73
2021/07/05 06:53:20;;;;;;;7.55;3.85;;;20.40;76.10;;;;;;5096778;28;20504;-73
2021/07/05 06:55:45;;;;;;;9.63;3.97;;;20.40;76.10;;;;;;5096704;28;20040;-73
2021/07/05 06:58:11;;;;;;;13.07;4.38;;;20.40;76.10;;;;;;5096436;28;20351;-72
2021/07/05 07:00:37;;;;;;;10.65;4.47;;;20.40;76.20;;;;;;5096538;28;20120;-72
2021/07/05 07:03:05;;;;;;;9.60;4.45;;;20.40;76.30;;;;;;5096593;28;20104;-72
2021/07/05 07:05:33;;;;;;;9.55;4.50;;;20.40;76.20;;;;;;5096486;28;20455;-73
2021/07/05 07:08:00;;;;;;;8.07;4.07;;;20.40;76.10;;;;;;5095464;28;20055;-73
2021/07/05 07:10:26;;;;;;;8.90;4.55;;;20.40;76.10;;;;;;5086912;28;20119;-73
2021/07/05 07:12:54;;;;;;;10.88;4.35;;;20.40;76.10;;;;;;5081193;28;20052;-73
2021/07/05 07:15:30;;;;;;;9.25;4.93;;;20.40;76.00;;;;;;5096267;28;20051;-72
2021/07/05 07:20:27;;;;;;;10.05;5.00;;;20.40;76.10;;;;;;5094788;28;20050;-72
2021/07/05 07:22:53;;;;;;;12.27;4.53;;;20.30;76.00;;;;;;5080556;28;20048;-72
2021/07/05 07:25:19;;;;;;;9.82;4.97;;;20.30;76.00;;;;;;5088150;28;20040;-73
2021/07/05 07:27:45;;;;;;;11.10;4.65;;;20.30;76.00;;;;;;5093652;28;20062;-73
2021/07/05 07:30:13;;;;;;;11.23;4.70;;;20.30;76.10;;;;;;5088209;28;20044;-73
2021/07/05 07:32:40;;;;;;;9.32;4.47;;;20.20;76.10;;;;;;5096033;28;20044;-72
2021/07/05 07:35:06;;;;;;;9.25;5.22;;;20.30;76.20;;;;;;5095737;28;20532;-72
2021/07/05 07:37:33;;;;;;;8.70;4.15;;;20.30;76.20;;;;;;5092318;28;20131;-72
2021/07/05 07:40:09;;;;;;;8.38;4.55;;;20.30;76.20;;;;;;5092636;28;20044;-71
2021/07/05 07:42:35;;;;;;;11.95;5.22;;;20.20;76.20;;;;;;5075440;28;20430;-71
2021/07/05 07:45:01;;;;;;;13.27;5.30;;;20.20;76.20;;;;;;5077811;28;20136;-72
2021/07/05 07:47:26;;;;;;;10.10;5.28;;;20.20;76.30;;;;;;5082979;28;20521;-71
2021/07/05 07:49:54;;;;;;;11.95;5.68;;;20.20;76.30;;;;;;5085379;28;20040;-70
2021/07/05 07:52:20;;;;;;;10.90;4.88;;;20.20;76.40;;;;;;5085412;28;20048;-71
2021/07/05 07:54:46;;;;;;;9.25;4.70;;;20.20;76.40;;;;;;5081907;28;20040;-76
2021/07/05 07:57:16;;;;;;;11.65;5.25;;;20.20;76.50;;;;;;5088103;28;20048;-73
2021/07/05 07:59:44;;;;;;;13.48;5.10;;;20.10;76.50;;;;;;5084440;28;20050;-73
2021/07/05 08:02:11;;;;;;;10.18;4.60;;;20.20;76.50;;;;;;5084126;28;20047;-71
2021/07/05 08:04:37;;;;;;;8.52;4.70;;;20.20;76.50;;;;;;5089446;28;20135;-71
2021/07/05 08:07:04;;;;;;;10.25;4.95;;;20.20;76.50;;;;;;5090722;28;20390;-72
2021/07/05 08:09:31;;;;;;;9.82;4.93;;;20.20;76.60;;;;;;5090753;28;20039;-72
2021/07/05 08:11:57;;;;;;;9.60;4.93;;;20.20;76.70;;;;;;5078261;28;20056;-72
2021/07/05 08:14:23;;;;;;;9.25;4.55;;;20.20;76.80;;;;;;5085726;28;20044;-72
2021/07/05 08:16:49;;;;;;;10.45;5.22;;;20.20;76.80;;;;;;5095262;28;20052;-73
2021/07/05 08:19:14;;;;;;;11.80;5.60;;;20.10;76.80;;;;;;5094966;28;20059;-72
2021/07/05 08:21:41;;;;;;;12.18;5.63;;;20.20;77.00;;;;;;5087662;28;20051;-72
2021/07/05 08:24:08;;;;;;;12.35;5.55;;;20.20;77.10;;;;;;5081840;28;21261;-72
2021/07/05 08:26:34;;;;;;;13.18;6.38;;;20.20;77.20;;;;;;5079993;28;20059;-72
2021/07/05 08:29:01;;;;;;;13.23;5.70;;;20.20;77.30;;;;;;5087752;28;20360;-72
2021/07/05 08:31:27;;;;;;;10.48;5.80;;;20.20;77.40;;;;;;5082213;28;20132;-73
2021/07/05 08:33:53;;;;;;;10.32;5.22;;;20.20;77.50;;;;;;5089367;28;20097;-72
2021/07/05 08:36:20;;;;;;;10.25;5.20;;;20.30;77.60;;;;;;5074393;28;20052;-72
2021/07/05 08:38:48;;;;;;;10.82;5.53;;;20.30;77.60;;;;;;5091375;28;20052;-72
2021/07/05 08:41:14;;;;;;;10.73;4.85;;;20.30;77.70;;;;;;5084848;28;20060;-71
2021/07/05 08:43:45;;;;;;;10.27;4.75;;;20.40;77.80;;;;;;5081123;28;20044;-72
2021/07/05 08:46:13;;;;;;;13.80;5.07;;;20.40;77.70;;;;;;5086292;28;20101;-72
2021/07/05 08:48:43;;;;;;;12.50;4.75;;;20.40;77.70;;;;;;5085351;28;20500;-72
2021/07/05 08:51:12;;;;;;;8.55;4.50;;;20.50;77.70;;;;;;5090901;28;20076;-72
2021/07/05 08:53:40;;;;;;;6.78;4.30;;;20.50;77.70;;;;;;5081510;28;20041;-72
2021/07/05 08:56:06;;;;;;;8.82;4.20;;;20.50;77.70;;;;;;5084642;28;20071;-72
2021/07/05 08:58:32;;;;;;;8.88;4.78;;;20.50;77.60;;;;;;5079701;28;20121;-72
2021/07/05 09:00:58;;;;;;;9.75;4.22;;;20.60;77.70;;;;;;5078014;28;20443;-72
2021/07/05 09:03:26;;;;;;;11.27;5.53;;;20.50;77.70;;;;;;5077781;28;20059;-72
2021/07/05 09:06:11;;;;;;;8.13;4.95;;;20.60;77.80;;;;;;5083236;28;20119;-73
2021/07/05 09:08:41;;;;;;;10.25;4.47;;;20.60;77.70;;;;;;5093471;28;20101;-73
2021/07/05 09:11:11;;;;;;;14.05;4.70;;;20.60;77.80;;;;;;5086995;28;20074;-71
2021/07/05 09:13:50;;;;;;;14.30;5.40;;;20.60;77.80;;;;;;5097027;28;20052;-72
2021/07/05 09:16:35;;;;;;;20.60;5.43;;;20.60;77.70;;;;;;5096957;28;20044;-73
2021/07/05 09:19:12;;;;;;;13.38;5.25;;;20.60;77.70;;;;;;5085352;28;20112;-72
2021/07/05 09:21:37;;;;;;;14.65;5.15;;;20.70;77.80;;;;;;5077238;28;20051;-73
2021/07/05 09:24:06;;;;;;;12.60;4.68;;;20.70;77.80;;;;;;5077103;28;20044;-72
2021/07/05 09:26:43;;;;;;;13.57;5.38;;;20.70;77.80;;;;;;5077304;28;20048;-72
2021/07/05 09:29:15;;;;;;;12.15;4.80;;;20.70;77.80;;;;;;5081213;28;20060;-72
2021/07/05 09:31:47;;;;;;;16.42;5.05;;;20.70;77.80;;;;;;5090421;28;20040;-72
2021/07/05 09:34:23;;;;;;;11.30;5.13;;;20.70;77.90;;;;;;5083180;28;20037;-72
2021/07/05 09:36:52;;;;;;;18.33;4.95;;;20.70;77.90;;;;;;5077791;28;20156;-72
2021/07/05 09:39:22;;;;;;;10.68;4.82;;;20.80;77.90;;;;;;5097158;28;20147;-72
2021/07/05 09:41:50;;;;;;;11.25;5.10;;;20.70;77.50;;;;;;5085134;28;20118;-73
2021/07/05 09:44:20;;;;;;;13.57;5.03;;;20.70;76.80;;;;;;5077740;28;20097;-73
2021/07/05 09:46:55;;;;;;;9.85;5.10;;;20.70;76.40;;;;;;5085547;28;20038;-74
2021/07/05 09:49:31;;;;;;;13.82;5.70;;;20.70;76.10;;;;;;5089755;28;20115;-72
2021/07/05 09:52:10;;;;;;;10.38;5.43;;;20.70;76.20;;;;;;5084404;28;20102;-73
2021/07/05 09:54:38;;;;;;;12.00;5.10;;;20.70;76.20;;;;;;5087385;28;20052;-73
2021/07/05 09:57:06;;;;;;;10.98;5.97;;;20.70;75.70;;;;;;5087268;28;20489;-73
2021/07/05 09:59:50;;;;;;;12.32;5.65;;;20.70;75.20;;;;;;5085506;28;20045;-73
2021/07/05 10:02:18;;;;;;;10.15;5.47;;;20.70;75.20;;;;;;5082628;28;20044;-72
2021/07/05 10:04:46;;;;;;;11.25;5.43;;;20.70;75.30;;;;;;5077011;28;20473;-74
2021/07/05 10:07:12;;;;;;;10.93;5.05;;;20.70;75.20;;;;;;5091224;28;20474;-74
2021/07/05 10:09:44;;;;;;;15.07;5.75;;;20.70;75.30;;;;;;5096588;28;20048;-74
2021/07/05 10:12:27;;;;;;;16.58;5.15;;;20.70;75.40;;;;;;5096932;28;20060;-74
2021/07/05 10:15:04;;;;;;;11.32;5.70;;;20.70;75.30;;;;;;5097119;28;20056;-74
2021/07/05 10:17:39;;;;;;;11.88;4.78;;;20.70;75.40;;;;;;5097147;28;20442;-73
2021/07/05 10:20:11;;;;;;;15.95;5.60;;;20.70;75.30;;;;;;5077089;28;20049;-75
2021/07/05 10:22:42;;;;;;;11.52;5.82;;;20.80;75.30;;;;;;5086298;28;20047;-74
2021/07/05 10:25:09;;;;;;;15.10;5.18;;;20.80;75.30;;;;;;5096959;28;20499;-75
2021/07/05 10:27:35;;;;;;;14.73;5.97;;;20.80;75.40;;;;;;5112768;28;20055;-74
2021/07/05 10:30:05;;;;;;;15.75;5.45;;;20.80;75.40;;;;;;5094267;28;20451;-74
2021/07/05 10:32:31;;;;;;;14.10;5.78;;;20.80;75.40;;;;;;5096368;28;20090;-74
2021/07/05 10:34:57;;;;;;;12.82;6.32;;;20.80;75.30;;;;;;5096792;28;20048;-74
2021/07/05 10:37:43;;;;;;;14.30;5.68;;;20.90;75.30;;;;;;5096236;28;20071;-75
2021/07/05 10:40:11;;;;;;;10.95;5.70;;;20.90;75.30;;;;;;5096923;28;20094;-73
2021/07/05 10:42:40;;;;;;;14.18;5.70;;;20.90;75.40;;;;;;5084488;28;20482;-74
2021/07/05 10:45:15;;;;;;;14.18;6.05;;;20.90;75.40;;;;;;5076322;28;20041;-74
2021/07/05 10:47:44;;;;;;;21.52;6.57;;;20.90;75.40;;;;;;5079404;28;20067;-74
2021/07/05 10:50:36;;;;;;;17.65;7.45;;;20.90;75.50;;;;;;5096794;28;20056;-73
2021/07/05 10:53:04;;;;;;;15.10;5.63;;;20.90;75.40;;;;;;5096012;28;20060;-74
2021/07/05 10:55:45;;;;;;;16.50;6.15;;;21.00;75.40;;;;;;5096214;28;20054;-74
2021/07/05 10:58:25;;;;;;;17.55;6.10;;;21.00;75.40;;;;;;5079949;28;20482;-74
2021/07/05 11:00:55;;;;;;;16.42;5.75;;;21.00;75.40;;;;;;5083623;28;20040;-73
2021/07/05 11:03:40;;;;;;;13.73;5.53;;;21.00;75.40;;;;;;5076843;28;20037;-74
2021/07/05 11:06:09;;;;;;;18.48;6.28;;;21.00;75.30;;;;;;5096696;28;20044;-73
2021/07/05 11:08:51;;;;;;;14.38;5.82;;;21.00;75.30;;;;;;5096132;28;20069;-74
2021/07/05 11:11:19;;;;;;;10.73;5.60;;;21.00;75.20;;;;;;5096968;28;20051;-73
2021/07/05 11:13:46;;;;;;;11.27;5.35;;;21.00;75.10;;;;;;5095621;28;20052;-74
2021/07/05 11:16:13;;;;;;;15.45;5.88;;;21.00;75.10;;;;;;5090993;28;20056;-73
2021/07/05 11:18:39;;;;;;;11.52;5.53;;;21.00;75.00;;;;;;5111311;28;20043;-73
2021/07/05 11:21:05;;;;;;;10.15;4.78;;;21.00;75.00;;;;;;5086286;28;20486;-73
2021/07/05 11:23:53;;;;;;;14.55;5.70;;;21.00;74.90;;;;;;5096016;28;20040;-73
2021/07/05 11:26:20;;;;;;;12.63;4.93;;;21.10;74.90;;;;;;5081287;28;20068;-73
2021/07/05 11:28:46;;;;;;;12.85;5.15;;;21.10;74.90;;;;;;5075451;28;20044;-74
2021/07/05 11:31:20;;;;;;;10.65;4.85;;;21.10;74.90;;;;;;5086420;28;20044;-73
2021/07/05 11:33:46;;;;;;;14.20;5.22;;;21.10;74.80;;;;;;5095583;28;20068;-73
2021/07/05 11:36:22;;;;;;;14.85;5.70;;;21.10;74.90;;;;;;5095753;28;20067;-74
2021/07/05 11:39:03;;;;;;;10.13;5.15;;;21.10;74.80;;;;;;5095269;28;20036;-74
2021/07/05 11:41:30;;;;;;;8.73;5.15;;;21.10;74.80;;;;;;5091532;28;20431;-73
2021/07/05 11:44:09;;;;;;;12.43;5.25;;;21.00;74.50;;;;;;5094683;28;20118;-74
2021/07/05 11:46:35;;;;;;;12.15;5.53;;;21.00;74.10;;;;;;5095154;28;20370;-73
2021/07/05 11:49:07;;;;;;;12.60;5.13;;;21.00;73.80;;;;;;5085241;28;20052;-73
2021/07/05 11:51:37;;;;;;;9.10;4.60;;;21.00;73.50;;;;;;5091848;28;20051;-73
2021/07/05 11:54:06;;;;;;;14.70;4.88;;;21.00;73.50;;;;;;5083259;28;20044;-74
2021/07/05 11:56:47;;;;;;;9.27;5.30;;;21.00;73.50;;;;;;5077676;28;20067;-74
2021/07/05 11:59:23;;;;;;;9.45;4.57;;;21.00;73.50;;;;;;5080321;28;20044;-73
2021/07/05 12:02:03;;;;;;;12.73;5.07;;;21.10;73.60;;;;;;5082784;28;20040;-74
2021/07/05 12:04:37;;;;;;;11.45;5.18;;;21.10;73.50;;;;;;5095751;28;20051;-74
2021/07/05 12:07:05;;;;;;;10.60;4.72;;;21.10;73.40;;;;;;5094938;28;20428;-74
2021/07/05 12:09:33;;;;;;;11.73;4.75;;;21.10;73.50;;;;;;5095391;28;20048;-74
2021/07/05 12:12:13;;;;;;;11.20;4.97;;;21.10;73.50;;;;;;5094820;28;20055;-73
2021/07/05 12:14:41;;;;;;;9.65;4.85;;;21.10;73.40;;;;;;5095143;28;20169;-74
2021/07/05 12:17:09;;;;;;;6.90;3.85;;;21.10;73.30;;;;;;5095001;28;20044;-74
2021/07/05 12:19:37;;;;;;;9.60;5.07;;;21.10;73.30;;;;;;5094891;28;20044;-74
2021/07/05 12:22:09;;;;;;;5.82;4.20;;;21.10;73.30;;;;;;5095485;28;20040;-73
2021/07/05 12:24:40;;;;;;;10.13;4.57;;;21.20;73.40;;;;;;5093332;28;20056;-73
2021/07/05 12:27:17;;;;;;;9.75;4.30;;;21.20;73.30;;;;;;5095001;28;20387;-74
2021/07/05 12:29:55;;;;;;;9.75;4.30;;;21.20;73.30;;;;;;5074223;28;20126;-73
2021/07/05 12:32:29;;;;;;;13.55;4.43;;;21.20;73.40;;;;;;5085566;28;20450;-73
2021/07/05 12:34:59;;;;;;;13.52;4.53;;;21.20;73.50;;;;;;5098435;28;20040;-74
2021/07/05 12:37:46;;;;;;;9.35;4.60;;;21.10;73.20;;;;;;5098944;28;20040;-73
2021/07/05 12:40:33;;;;;;;6.95;3.78;;;21.10;72.90;;;;;;5098602;28;20193;-74
2021/07/05 12:43:08;;;;;;;11.63;4.43;;;21.10;72.90;;;;;;5098405;28;20082;-73
2021/07/05 12:45:35;;;;;;;10.75;4.38;;;21.10;72.70;;;;;;5081157;28;20048;-76
2021/07/05 12:48:21;;;;;;;14.82;4.78;;;21.10;72.60;;;;;;5082861;28;20036;-73
2021/07/05 12:50:57;;;;;;;20.10;4.63;;;21.10;72.60;;;;;;5077337;28;20074;-74
2021/07/05 12:53:28;;;;;;;13.23;4.78;;;21.10;72.30;;;;;;5078233;28;20116;-77